sensor_id;sensor_type;location;lat;lon;timestamp;P1;durP1;ratioP1;P2;durP2;ratioP2
317;SDS011;146;53.448;10.228;2023-03-15T00:02:14;3.07;;;1.30;;
317;SDS011;146;53.448;10.228;2023-03-15T00:04:43;1.90;;;1.00;;
317;SDS011;146;53.448;10.228;2023-03-15T00:07:09;3.58;;;1.17;;
317;SDS011;146;53.448;10.228;2023-03-15T00:09:49;1.17;;;1.08;;
317;SDS011;146;53.448;10.228;2023-03-15T00:12:32;3.27;;;1.40;;
317;SDS011;146;53.448;10.228;2023-03-15T00:14:59;2.77;;;0.90;;
317;SDS011;146;53.448;10.228;2023-03-15T00:17:25;2.00;;;0.90;;
317;SDS011;146;53.448;10.228;2023-03-15T00:20:01;1.10;;;0.85;;
317;SDS011;146;53.448;10.228;2023-03-15T00:22:31;3.20;;;1.00;;
317;SDS011;146;53.448;10.228;2023-03-15T00:24:58;3.40;;;1.38;;
317;SDS011;146;53.448;10.228;2023-03-15T00:27:25;1.20;;;1.10;;
317;SDS011;146;53.448;10.228;2023-03-15T00:29:58;1.70;;;1.17;;
317;SDS011;146;53.448;10.228;2023-03-15T00:32:41;1.63;;;0.77;;
317;SDS011;146;53.448;10.228;2023-03-15T00:35:15;1.97;;;1.10;;
317;SDS011;146;53.448;10.228;2023-03-15T00:37:43;6.75;;;1.08;;
317;SDS011;146;53.448;10.228;2023-03-15T00:40:17;4.17;;;1.57;;
317;SDS011;146;53.448;10.228;2023-03-15T00:42:44;1.77;;;0.83;;
317;SDS011;146;53.448;10.228;2023-03-15T00:45:17;2.35;;;1.30;;
317;SDS011;146;53.448;10.228;2023-03-15T00:47:47;3.83;;;1.47;;
317;SDS011;146;53.448;10.228;2023-03-15T00:50:15;2.35;;;1.40;;
317;SDS011;146;53.448;10.228;2023-03-15T00:52:45;1.77;;;1.15;;
317;SDS011;146;53.448;10.228;2023-03-15T00:55:21;3.53;;;1.43;;
317;SDS011;146;53.448;10.228;2023-03-15T00:57:48;1.60;;;1.10;;
317;SDS011;146;53.448;10.228;2023-03-15T01:00:18;1.30;;;1.20;;
317;SDS011;146;53.448;10.228;2023-03-15T01:05:17;1.00;;;1.00;;
317;SDS011;146;53.448;10.228;2023-03-15T01:07:51;3.03;;;1.40;;
317;SDS011;146;53.448;10.228;2023-03-15T01:10:24;5.15;;;1.30;;
317;SDS011;146;53.448;10.228;2023-03-15T01:12:51;2.40;;;1.50;;
317;SDS011;146;53.448;10.228;2023-03-15T01:15:32;3.15;;;1.40;;
317;SDS011;146;53.448;10.228;2023-03-15T01:18:01;4.47;;;1.85;;
317;SDS011;146;53.448;10.228;2023-03-15T01:20:35;7.28;;;2.00;;
317;SDS011;146;53.448;10.228;2023-03-15T01:23:02;1.87;;;1.70;;
317;SDS011;146;53.448;10.228;2023-03-15T01:25:39;5.80;;;2.30;;
317;SDS011;146;53.448;10.228;2023-03-15T01:28:09;8.90;;;2.37;;
317;SDS011;146;53.448;10.228;2023-03-15T01:30:48;3.33;;;2.60;;
317;SDS011;146;53.448;10.228;2023-03-15T01:33:15;4.47;;;2.47;;
317;SDS011;146;53.448;10.228;2023-03-15T01:35:57;2.80;;;2.57;;
317;SDS011;146;53.448;10.228;2023-03-15T01:38:25;4.10;;;3.40;;
317;SDS011;146;53.448;10.228;2023-03-15T01:40:56;8.07;;;2.57;;
317;SDS011;146;53.448;10.228;2023-03-15T01:43:23;6.80;;;3.05;;
317;SDS011;146;53.448;10.228;2023-03-15T01:45:52;3.57;;;3.27;;
317;SDS011;146;53.448;10.228;2023-03-15T01:48:26;4.18;;;3.22;;
317;SDS011;146;53.448;10.228;2023-03-15T01:51:17;4.60;;;3.50;;
317;SDS011;146;53.448;10.228;2023-03-15T01:53:57;7.00;;;3.40;;
317;SDS011;146;53.448;10.228;2023-03-15T01:56:27;5.20;;;2.90;;
317;SDS011;146;53.448;10.228;2023-03-15T01:58:56;3.05;;;2.15;;
317;SDS011;146;53.448;10.228;2023-03-15T02:01:29;2.83;;;2.57;;
317;SDS011;146;53.448;10.228;2023-03-15T02:03:59;3.37;;;2.43;;
317;SDS011;146;53.448;10.228;2023-03-15T02:06:33;4.60;;;2.20;;
317;SDS011;146;53.448;10.228;2023-03-15T02:09:07;4.53;;;1.65;;
317;SDS011;146;53.448;10.228;2023-03-15T02:11:42;1.60;;;1.50;;
317;SDS011;146;53.448;10.228;2023-03-15T02:14:12;2.60;;;1.80;;
317;SDS011;146;53.448;10.228;2023-03-15T02:16:39;2.80;;;1.47;;
317;SDS011;146;53.448;10.228;2023-03-15T02:19:16;2.00;;;1.80;;
317;SDS011;146;53.448;10.228;2023-03-15T02:21:56;1.95;;;1.15;;
317;SDS011;146;53.448;10.228;2023-03-15T02:24:28;1.53;;;1.03;;
317;SDS011;146;53.448;10.228;2023-03-15T02:27:09;1.20;;;1.10;;
317;SDS011;146;53.448;10.228;2023-03-15T02:29:43;1.35;;;1.25;;
317;SDS011;146;53.448;10.228;2023-03-15T02:32:16;1.20;;;1.10;;
317;SDS011;146;53.448;10.228;2023-03-15T02:34:46;2.43;;;1.20;;
317;SDS011;146;53.448;10.228;2023-03-15T02:37:13;1.80;;;1.50;;
317;SDS011;146;53.448;10.228;2023-03-15T02:39:43;1.83;;;1.30;;
317;SDS011;146;53.448;10.228;2023-03-15T02:42:10;3.50;;;1.67;;
317;SDS011;146;53.448;10.228;2023-03-15T02:44:38;2.40;;;1.70;;
317;SDS011;146;53.448;10.228;2023-03-15T02:47:19;2.83;;;1.43;;
317;SDS011;146;53.448;10.228;2023-03-15T02:49:50;1.73;;;1.40;;
317;SDS011;146;53.448;10.228;2023-03-15T02:52:18;1.30;;;1.20;;
317;SDS011;146;53.448;10.228;2023-03-15T02:54:45;3.23;;;1.57;;
317;SDS011;146;53.448;10.228;2023-03-15T02:57:12;5.43;;;1.40;;
317;SDS011;146;53.448;10.228;2023-03-15T02:59:47;1.53;;;1.37;;
317;SDS011;146;53.448;10.228;2023-03-15T03:02:15;1.10;;;1.00;;
317;SDS011;146;53.448;10.228;2023-03-15T03:04:42;1.47;;;1.20;;
317;SDS011;146;53.448;10.228;2023-03-15T03:07:11;3.10;;;1.93;;
317;SDS011;146;53.448;10.228;2023-03-15T03:09:38;1.90;;;1.10;;
317;SDS011;146;53.448;10.228;2023-03-15T03:12:05;0.87;;;0.87;;
317;SDS011;146;53.448;10.228;2023-03-15T03:14:35;2.17;;;1.43;;
317;SDS011;146;53.448;10.228;2023-03-15T03:17:09;2.10;;;1.23;;
317;SDS011;146;53.448;10.228;2023-03-15T03:19:36;2.00;;;1.20;;
317;SDS011;146;53.448;10.228;2023-03-15T03:22:24;1.27;;;1.17;;
317;SDS011;146;53.448;10.228;2023-03-15T03:24:57;1.30;;;1.20;;
317;SDS011;146;53.448;10.228;2023-03-15T03:27:24;1.70;;;1.53;;
317;SDS011;146;53.448;10.228;2023-03-15T03:30:00;1.33;;;0.90;;
317;SDS011;146;53.448;10.228;2023-03-15T03:32:30;5.73;;;1.30;;
317;SDS011;146;53.448;10.228;2023-03-15T03:34:57;1.73;;;1.30;;
317;SDS011;146;53.448;10.228;2023-03-15T03:37:24;1.27;;;1.17;;
317;SDS011;146;53.448;10.228;2023-03-15T03:39:51;3.70;;;1.30;;
317;SDS011;146;53.448;10.228;2023-03-15T03:42:18;3.40;;;1.30;;
317;SDS011;146;53.448;10.228;2023-03-15T03:44:44;3.60;;;1.63;;
317;SDS011;146;53.448;10.228;2023-03-15T03:47:11;1.77;;;1.10;;
317;SDS011;146;53.448;10.228;2023-03-15T03:49:42;1.03;;;1.00;;
317;SDS011;146;53.448;10.228;2023-03-15T03:52:11;1.73;;;1.40;;
317;SDS011;146;53.448;10.228;2023-03-15T03:54:38;1.37;;;1.10;;
317;SDS011;146;53.448;10.228;2023-03-15T03:57:10;1.43;;;1.33;;
317;SDS011;146;53.448;10.228;2023-03-15T03:59:39;3.73;;;1.43;;
317;SDS011;146;53.448;10.228;2023-03-15T04:02:12;7.97;;;1.67;;
317;SDS011;146;53.448;10.228;2023-03-15T04:04:39;2.10;;;1.77;;
317;SDS011;146;53.448;10.228;2023-03-15T04:07:07;2.60;;;1.73;;
317;SDS011;146;53.448;10.228;2023-03-15T04:09:37;2.20;;;2.00;;
317;SDS011;146;53.448;10.228;2023-03-15T04:12:04;3.10;;;1.97;;
317;SDS011;146;53.448;10.228;2023-03-15T04:14:37;1.90;;;1.80;;
317;SDS011;146;53.448;10.228;2023-03-15T04:17:06;2.57;;;2.37;;
317;SDS011;146;53.448;10.228;2023-03-15T04:19:38;2.03;;;1.80;;
317;SDS011;146;53.448;10.228;2023-03-15T04:22:05;2.60;;;2.33;;
317;SDS011;146;53.448;10.228;2023-03-15T04:24:39;2.20;;;2.10;;
317;SDS011;146;53.448;10.228;2023-03-15T04:27:06;3.05;;;2.58;;
317;SDS011;146;53.448;10.228;2023-03-15T04:29:45;3.13;;;2.50;;
317;SDS011;146;53.448;10.228;2023-03-15T04:32:15;3.07;;;1.93;;
317;SDS011;146;53.448;10.228;2023-03-15T04:34:42;2.73;;;2.53;;
317;SDS011;146;53.448;10.228;2023-03-15T04:37:15;3.50;;;2.67;;
317;SDS011;146;53.448;10.228;2023-03-15T04:39:43;5.45;;;3.25;;
317;SDS011;146;53.448;10.228;2023-03-15T04:42:16;4.97;;;2.97;;
317;SDS011;146;53.448;10.228;2023-03-15T04:44:46;3.70;;;2.80;;
317;SDS011;146;53.448;10.228;2023-03-15T04:47:13;9.10;;;3.73;;
317;SDS011;146;53.448;10.228;2023-03-15T04:49:39;4.30;;;3.35;;
317;SDS011;146;53.448;10.228;2023-03-15T04:52:10;3.50;;;2.87;;
317;SDS011;146;53.448;10.228;2023-03-15T04:54:44;5.60;;;3.60;;
317;SDS011;146;53.448;10.228;2023-03-15T04:57:12;9.37;;;3.80;;
317;SDS011;146;53.448;10.228;2023-03-15T04:59:43;3.40;;;3.10;;
317;SDS011;146;53.448;10.228;2023-03-15T05:02:10;3.83;;;3.00;;
317;SDS011;146;53.448;10.228;2023-03-15T05:04:43;3.70;;;3.40;;
317;SDS011;146;53.448;10.228;2023-03-15T05:07:13;4.07;;;3.40;;
317;SDS011;146;53.448;10.228;2023-03-15T05:09:40;6.03;;;3.37;;
317;SDS011;146;53.448;10.228;2023-03-15T05:12:12;3.57;;;3.27;;
317;SDS011;146;53.448;10.228;2023-03-15T05:14:42;6.07;;;4.23;;
317;SDS011;146;53.448;10.228;2023-03-15T05:17:09;6.40;;;3.57;;
317;SDS011;146;53.448;10.228;2023-03-15T05:19:42;6.57;;;3.33;;
317;SDS011;146;53.448;10.228;2023-03-15T05:22:16;8.80;;;3.80;;
317;SDS011;146;53.448;10.228;2023-03-15T05:24:53;6.53;;;4.27;;
317;SDS011;146;53.448;10.228;2023-03-15T05:27:26;5.00;;;3.80;;
317;SDS011;146;53.448;10.228;2023-03-15T05:29:56;4.40;;;3.53;;
317;SDS011;146;53.448;10.228;2023-03-15T05:32:37;5.13;;;3.67;;
317;SDS011;146;53.448;10.228;2023-03-15T05:35:17;4.97;;;3.90;;
317;SDS011;146;53.448;10.228;2023-03-15T05:37:50;6.87;;;4.60;;
317;SDS011;146;53.448;10.228;2023-03-15T05:43:15;6.73;;;3.20;;
317;SDS011;146;53.448;10.228;2023-03-15T05:45:42;5.40;;;3.70;;
317;SDS011;146;53.448;10.228;2023-03-15T05:48:11;7.30;;;4.10;;
317;SDS011;146;53.448;10.228;2023-03-15T05:50:37;5.30;;;3.53;;
317;SDS011;146;53.448;10.228;2023-03-15T05:53:04;6.27;;;3.43;;
317;SDS011;146;53.448;10.228;2023-03-15T05:55:31;5.90;;;4.27;;
317;SDS011;146;53.448;10.228;2023-03-15T05:58:01;5.63;;;4.03;;
317;SDS011;146;53.448;10.228;2023-03-15T06:00:49;5.87;;;3.97;;
317;SDS011;146;53.448;10.228;2023-03-15T06:03:16;6.53;;;3.80;;
317;SDS011;146;53.448;10.228;2023-03-15T06:05:45;5.23;;;3.70;;
317;SDS011;146;53.448;10.228;2023-03-15T06:08:12;4.10;;;3.70;;
317;SDS011;146;53.448;10.228;2023-03-15T06:10:45;5.37;;;4.47;;
317;SDS011;146;53.448;10.228;2023-03-15T06:13:16;4.30;;;3.30;;
317;SDS011;146;53.448;10.228;2023-03-15T06:15:45;6.23;;;5.63;;
317;SDS011;146;53.448;10.228;2023-03-15T06:18:15;5.93;;;5.30;;
317;SDS011;146;53.448;10.228;2023-03-15T06:20:42;10.37;;;5.97;;
317;SDS011;146;53.448;10.228;2023-03-15T06:23:09;5.13;;;4.50;;
317;SDS011;146;53.448;10.228;2023-03-15T06:25:45;5.97;;;4.80;;
317;SDS011;146;53.448;10.228;2023-03-15T06:28:12;7.73;;;4.47;;
317;SDS011;146;53.448;10.228;2023-03-15T06:30:44;6.43;;;5.43;;
317;SDS011;146;53.448;10.228;2023-03-15T06:33:21;7.70;;;4.33;;
317;SDS011;146;53.448;10.228;2023-03-15T06:35:51;9.47;;;4.33;;
317;SDS011;146;53.448;10.228;2023-03-15T06:38:30;6.07;;;3.90;;
317;SDS011;146;53.448;10.228;2023-03-15T06:41:02;6.45;;;4.53;;
317;SDS011;146;53.448;10.228;2023-03-15T06:43:39;5.13;;;4.20;;
317;SDS011;146;53.448;10.228;2023-03-15T06:46:31;8.57;;;5.33;;
317;SDS011;146;53.448;10.228;2023-03-15T06:49:05;10.13;;;4.30;;
317;SDS011;146;53.448;10.228;2023-03-15T06:51:39;7.23;;;4.93;;
317;SDS011;146;53.448;10.228;2023-03-15T06:54:33;8.43;;;6.83;;
317;SDS011;146;53.448;10.228;2023-03-15T06:57:29;9.00;;;5.23;;
317;SDS011;146;53.448;10.228;2023-03-15T06:59:57;5.57;;;3.80;;
317;SDS011;146;53.448;10.228;2023-03-15T07:02:27;4.40;;;3.77;;
317;SDS011;146;53.448;10.228;2023-03-15T07:05:00;5.53;;;4.23;;
317;SDS011;146;53.448;10.228;2023-03-15T07:07:31;4.83;;;4.43;;
317;SDS011;146;53.448;10.228;2023-03-15T07:13:34;6.77;;;4.47;;
317;SDS011;146;53.448;10.228;2023-03-15T07:16:15;6.53;;;4.60;;
317;SDS011;146;53.448;10.228;2023-03-15T07:18:45;4.37;;;4.03;;
317;SDS011;146;53.448;10.228;2023-03-15T07:24:22;7.77;;;4.83;;
317;SDS011;146;53.448;10.228;2023-03-15T07:26:49;5.77;;;5.27;;
317;SDS011;146;53.448;10.228;2023-03-15T07:29:29;6.03;;;4.67;;
317;SDS011;146;53.448;10.228;2023-03-15T07:32:02;5.60;;;4.60;;
317;SDS011;146;53.448;10.228;2023-03-15T07:34:31;5.57;;;4.97;;
317;SDS011;146;53.448;10.228;2023-03-15T07:37:06;5.43;;;4.43;;
317;SDS011;146;53.448;10.228;2023-03-15T07:39:36;6.37;;;4.53;;
317;SDS011;146;53.448;10.228;2023-03-15T07:42:03;5.70;;;4.70;;
317;SDS011;146;53.448;10.228;2023-03-15T07:44:44;5.00;;;4.50;;
317;SDS011;146;53.448;10.228;2023-03-15T07:47:11;4.40;;;3.83;;
317;SDS011;146;53.448;10.228;2023-03-15T07:49:43;5.43;;;4.40;;
317;SDS011;146;53.448;10.228;2023-03-15T07:52:22;11.27;;;4.43;;
317;SDS011;146;53.448;10.228;2023-03-15T07:54:49;4.17;;;3.77;;
317;SDS011;146;53.448;10.228;2023-03-15T07:57:16;9.53;;;4.10;;
317;SDS011;146;53.448;10.228;2023-03-15T07:59:46;4.83;;;3.53;;
317;SDS011;146;53.448;10.228;2023-03-15T08:02:30;2.83;;;2.57;;
317;SDS011;146;53.448;10.228;2023-03-15T08:04:59;2.90;;;2.70;;
317;SDS011;146;53.448;10.228;2023-03-15T08:07:29;3.33;;;2.53;;
317;SDS011;146;53.448;10.228;2023-03-15T08:10:12;2.73;;;1.87;;
317;SDS011;146;53.448;10.228;2023-03-15T08:12:40;2.80;;;2.60;;
317;SDS011;146;53.448;10.228;2023-03-15T08:15:08;5.30;;;2.80;;
317;SDS011;146;53.448;10.228;2023-03-15T08:17:35;3.63;;;2.67;;
317;SDS011;146;53.448;10.228;2023-03-15T08:20:04;2.30;;;2.10;;
317;SDS011;146;53.448;10.228;2023-03-15T08:22:35;2.40;;;2.20;;
317;SDS011;146;53.448;10.228;2023-03-15T08:25:02;3.83;;;3.13;;
317;SDS011;146;53.448;10.228;2023-03-15T08:27:39;3.80;;;3.50;;
317;SDS011;146;53.448;10.228;2023-03-15T08:30:11;4.90;;;3.73;;
317;SDS011;146;53.448;10.228;2023-03-15T08:32:39;8.53;;;6.70;;
317;SDS011;146;53.448;10.228;2023-03-15T08:35:18;9.77;;;6.93;;
317;SDS011;146;53.448;10.228;2023-03-15T08:38:02;5.00;;;4.43;;
317;SDS011;146;53.448;10.228;2023-03-15T08:40:32;3.30;;;3.10;;
317;SDS011;146;53.448;10.228;2023-03-15T08:43:06;2.67;;;2.47;;
317;SDS011;146;53.448;10.228;2023-03-15T08:45:39;3.43;;;2.00;;
317;SDS011;146;53.448;10.228;2023-03-15T08:48:06;3.83;;;1.50;;
317;SDS011;146;53.448;10.228;2023-03-15T08:50:42;1.23;;;1.13;;
317;SDS011;146;53.448;10.228;2023-03-15T08:53:09;2.10;;;1.70;;
317;SDS011;146;53.448;10.228;2023-03-15T08:55:39;1.83;;;1.70;;
317;SDS011;146;53.448;10.228;2023-03-15T08:58:06;1.90;;;1.70;;
317;SDS011;146;53.448;10.228;2023-03-15T09:00:40;2.90;;;2.60;;
317;SDS011;146;53.448;10.228;2023-03-15T09:03:16;3.10;;;2.37;;
317;SDS011;146;53.448;10.228;2023-03-15T09:05:45;2.50;;;2.23;;
317;SDS011;146;53.448;10.228;2023-03-15T09:08:24;3.97;;;2.50;;
317;SDS011;146;53.448;10.228;2023-03-15T09:11:05;2.93;;;2.17;;
317;SDS011;146;53.448;10.228;2023-03-15T09:13:42;2.20;;;1.80;;
317;SDS011;146;53.448;10.228;2023-03-15T09:16:10;2.33;;;2.13;;
317;SDS011;146;53.448;10.228;2023-03-15T09:18:44;2.53;;;2.33;;
317;SDS011;146;53.448;10.228;2023-03-15T09:21:12;2.60;;;1.80;;
317;SDS011;146;53.448;10.228;2023-03-15T09:23:39;2.27;;;2.00;;
317;SDS011;146;53.448;10.228;2023-03-15T09:26:06;7.83;;;1.97;;
317;SDS011;146;53.448;10.228;2023-03-15T09:28:42;2.00;;;1.90;;
317;SDS011;146;53.448;10.228;2023-03-15T09:31:12;1.63;;;1.33;;
317;SDS011;146;53.448;10.228;2023-03-15T09:33:44;4.03;;;2.23;;
317;SDS011;146;53.448;10.228;2023-03-15T09:36:18;2.07;;;1.00;;
317;SDS011;146;53.448;10.228;2023-03-15T09:38:58;2.20;;;1.57;;
317;SDS011;146;53.448;10.228;2023-03-15T09:41:42;1.97;;;1.00;;
317;SDS011;146;53.448;10.228;2023-03-15T09:44:23;6.93;;;3.07;;
317;SDS011;146;53.448;10.228;2023-03-15T09:47:07;4.00;;;1.20;;
317;SDS011;146;53.448;10.228;2023-03-15T09:49:54;1.73;;;0.73;;
317;SDS011;146;53.448;10.228;2023-03-15T09:52:31;2.60;;;1.10;;
317;SDS011;146;53.448;10.228;2023-03-15T09:55:14;0.80;;;0.80;;
317;SDS011;146;53.448;10.228;2023-03-15T09:57:45;1.00;;;1.00;;
317;SDS011;146;53.448;10.228;2023-03-15T10:00:18;1.43;;;1.10;;
317;SDS011;146;53.448;10.228;2023-03-15T10:02:55;1.00;;;0.70;;
317;SDS011;146;53.448;10.228;2023-03-15T10:05:30;1.07;;;0.70;;
317;SDS011;146;53.448;10.228;2023-03-15T10:08:10;2.60;;;0.70;;
317;SDS011;146;53.448;10.228;2023-03-15T10:10:39;1.80;;;1.20;;
317;SDS011;146;53.448;10.228;2023-03-15T10:13:28;3.73;;;1.10;;
317;SDS011;146;53.448;10.228;2023-03-15T10:16:32;2.03;;;0.80;;
317;SDS011;146;53.448;10.228;2023-03-15T10:19:05;5.83;;;1.80;;
317;SDS011;146;53.448;10.228;2023-03-15T10:21:42;3.40;;;0.83;;
317;SDS011;146;53.448;10.228;2023-03-15T10:24:18;3.70;;;1.07;;
317;SDS011;146;53.448;10.228;2023-03-15T10:26:46;1.10;;;1.00;;
317;SDS011;146;53.448;10.228;2023-03-15T10:29:16;3.63;;;1.13;;
317;SDS011;146;53.448;10.228;2023-03-15T10:31:46;0.80;;;0.70;;
317;SDS011;146;53.448;10.228;2023-03-15T10:34:14;2.37;;;1.10;;
317;SDS011;146;53.448;10.228;2023-03-15T10:36:48;1.00;;;0.90;;
317;SDS011;146;53.448;10.228;2023-03-15T10:39:20;3.60;;;1.13;;
317;SDS011;146;53.448;10.228;2023-03-15T10:41:47;1.20;;;0.90;;
317;SDS011;146;53.448;10.228;2023-03-15T10:44:16;1.00;;;0.73;;
317;SDS011;146;53.448;10.228;2023-03-15T10:47:04;1.57;;;1.00;;
317;SDS011;146;53.448;10.228;2023-03-15T10:49:33;2.00;;;0.67;;
317;SDS011;146;53.448;10.228;2023-03-15T10:52:04;1.70;;;1.00;;
317;SDS011;146;53.448;10.228;2023-03-15T10:54:35;4.83;;;1.57;;
317;SDS011;146;53.448;10.228;2023-03-15T10:57:18;3.60;;;1.53;;
317;SDS011;146;53.448;10.228;2023-03-15T11:05:42;3.60;;;1.10;;
317;SDS011;146;53.448;10.228;2023-03-15T11:08:11;1.43;;;0.63;;
317;SDS011;146;53.448;10.228;2023-03-15T11:10:41;3.07;;;1.43;;
317;SDS011;146;53.448;10.228;2023-03-15T11:13:10;2.57;;;1.17;;
317;SDS011;146;53.448;10.228;2023-03-15T11:15:39;3.53;;;1.40;;
317;SDS011;146;53.448;10.228;2023-03-15T11:18:34;1.97;;;1.20;;
317;SDS011;146;53.448;10.228;2023-03-15T11:21:03;2.00;;;0.80;;
317;SDS011;146;53.448;10.228;2023-03-15T11:23:34;4.27;;;1.20;;
317;SDS011;146;53.448;10.228;2023-03-15T11:26:07;3.23;;;1.70;;
317;SDS011;146;53.448;10.228;2023-03-15T11:28:46;3.23;;;1.07;;
317;SDS011;146;53.448;10.228;2023-03-15T11:31:17;1.10;;;1.00;;
317;SDS011;146;53.448;10.228;2023-03-15T11:33:47;0.83;;;0.70;;
317;SDS011;146;53.448;10.228;2023-03-15T11:36:19;1.10;;;0.90;;
317;SDS011;146;53.448;10.228;2023-03-15T11:39:09;1.50;;;0.70;;
317;SDS011;146;53.448;10.228;2023-03-15T11:41:45;1.00;;;0.70;;
317;SDS011;146;53.448;10.228;2023-03-15T11:44:14;1.23;;;0.83;;
317;SDS011;146;53.448;10.228;2023-03-15T11:47:04;3.07;;;1.20;;
317;SDS011;146;53.448;10.228;2023-03-15T11:49:48;3.07;;;1.00;;
317;SDS011;146;53.448;10.228;2023-03-15T11:52:18;3.33;;;1.37;;
317;SDS011;146;53.448;10.228;2023-03-15T11:54:50;2.60;;;1.20;;
317;SDS011;146;53.448;10.228;2023-03-15T12:00:19;3.10;;;0.80;;
317;SDS011;146;53.448;10.228;2023-03-15T12:18:15;2.90;;;0.83;;
317;SDS011;146;53.448;10.228;2023-03-15T12:20:49;2.77;;;0.93;;
317;SDS011;146;53.448;10.228;2023-03-15T12:23:47;1.27;;;0.83;;
317;SDS011;146;53.448;10.228;2023-03-15T12:26:23;1.87;;;1.00;;
317;SDS011;146;53.448;10.228;2023-03-15T12:29:11;2.50;;;1.07;;
317;SDS011;146;53.448;10.228;2023-03-15T12:31:48;3.90;;;1.33;;
317;SDS011;146;53.448;10.228;2023-03-15T12:34:23;2.83;;;0.70;;
317;SDS011;146;53.448;10.228;2023-03-15T12:37:00;2.00;;;1.33;;
317;SDS011;146;53.448;10.228;2023-03-15T12:39:38;4.07;;;1.53;;
317;SDS011;146;53.448;10.228;2023-03-15T12:48:24;3.80;;;1.13;;
317;SDS011;146;53.448;10.228;2023-03-15T12:51:04;2.27;;;1.50;;
317;SDS011;146;53.448;10.228;2023-03-15T12:53:48;7.77;;;1.33;;
317;SDS011;146;53.448;10.228;2023-03-15T12:59:21;1.70;;;1.50;;
317;SDS011;146;53.448;10.228;2023-03-15T13:02:06;8.67;;;1.50;;
317;SDS011;146;53.448;10.228;2023-03-15T13:04:48;2.10;;;1.03;;
317;SDS011;146;53.448;10.228;2023-03-15T13:07:28;2.93;;;0.83;;
317;SDS011;146;53.448;10.228;2023-03-15T13:10:10;0.57;;;0.57;;
317;SDS011;146;53.448;10.228;2023-03-15T13:13:00;4.73;;;1.07;;
317;SDS011;146;53.448;10.228;2023-03-15T13:15:35;1.83;;;1.13;;
317;SDS011;146;53.448;10.228;2023-03-15T13:18:12;3.07;;;1.37;;
317;SDS011;146;53.448;10.228;2023-03-15T13:20:45;1.97;;;0.87;;
317;SDS011;146;53.448;10.228;2023-03-15T13:23:19;3.50;;;0.83;;
317;SDS011;146;53.448;10.228;2023-03-15T13:25:56;1.33;;;0.70;;
317;SDS011;146;53.448;10.228;2023-03-15T13:28:47;1.10;;;0.80;;
317;SDS011;146;53.448;10.228;2023-03-15T13:31:19;1.10;;;1.00;;
317;SDS011;146;53.448;10.228;2023-03-15T13:33:49;2.73;;;1.47;;
317;SDS011;146;53.448;10.228;2023-03-15T13:36:38;4.53;;;1.30;;
317;SDS011;146;53.448;10.228;2023-03-15T13:39:09;1.23;;;0.90;;
317;SDS011;146;53.448;10.228;2023-03-15T13:41:41;1.27;;;0.80;;
317;SDS011;146;53.448;10.228;2023-03-15T13:44:16;4.93;;;1.30;;
317;SDS011;146;53.448;10.228;2023-03-15T13:46:47;2.00;;;1.10;;
317;SDS011;146;53.448;10.228;2023-03-15T13:49:17;4.83;;;1.00;;
317;SDS011;146;53.448;10.228;2023-03-15T13:51:44;6.13;;;1.23;;
317;SDS011;146;53.448;10.228;2023-03-15T13:54:17;0.80;;;0.80;;
317;SDS011;146;53.448;10.228;2023-03-15T13:56:53;1.47;;;1.00;;
317;SDS011;146;53.448;10.228;2023-03-15T13:59:30;3.70;;;1.40;;
317;SDS011;146;53.448;10.228;2023-03-15T14:02:18;1.00;;;0.90;;
317;SDS011;146;53.448;10.228;2023-03-15T14:04:51;3.63;;;1.37;;
317;SDS011;146;53.448;10.228;2023-03-15T14:07:28;2.27;;;1.50;;
317;SDS011;146;53.448;10.228;2023-03-15T14:12:51;2.00;;;1.27;;
317;SDS011;146;53.448;10.228;2023-03-15T14:15:23;1.63;;;0.90;;
317;SDS011;146;53.448;10.228;2023-03-15T14:17:54;3.70;;;1.20;;
317;SDS011;146;53.448;10.228;2023-03-15T14:20:31;2.07;;;1.30;;
317;SDS011;146;53.448;10.228;2023-03-15T14:23:10;4.63;;;2.00;;
317;SDS011;146;53.448;10.228;2023-03-15T14:25:48;4.03;;;1.07;;
317;SDS011;146;53.448;10.228;2023-03-15T14:28:18;1.47;;;1.13;;
317;SDS011;146;53.448;10.228;2023-03-15T14:30:52;5.30;;;1.63;;
317;SDS011;146;53.448;10.228;2023-03-15T14:33:26;1.47;;;1.33;;
317;SDS011;146;53.448;10.228;2023-03-15T14:36:02;6.47;;;1.40;;
317;SDS011;146;53.448;10.228;2023-03-15T14:38:31;6.07;;;2.00;;
317;SDS011;146;53.448;10.228;2023-03-15T14:41:10;1.93;;;1.10;;
317;SDS011;146;53.448;10.228;2023-03-15T14:43:44;1.97;;;0.90;;
317;SDS011;146;53.448;10.228;2023-03-15T14:46:11;1.87;;;0.80;;
317;SDS011;146;53.448;10.228;2023-03-15T14:48:40;7.03;;;1.27;;
317;SDS011;146;53.448;10.228;2023-03-15T14:51:15;2.03;;;0.93;;
317;SDS011;146;53.448;10.228;2023-03-15T14:53:43;1.73;;;0.80;;
317;SDS011;146;53.448;10.228;2023-03-15T14:56:14;2.90;;;1.20;;
317;SDS011;146;53.448;10.228;2023-03-15T14:58:41;0.97;;;0.83;;
317;SDS011;146;53.448;10.228;2023-03-15T15:01:09;1.37;;;0.73;;
317;SDS011;146;53.448;10.228;2023-03-15T15:03:39;2.40;;;0.87;;
317;SDS011;146;53.448;10.228;2023-03-15T15:06:16;1.30;;;0.87;;
317;SDS011;146;53.448;10.228;2023-03-15T15:08:44;2.90;;;0.90;;
317;SDS011;146;53.448;10.228;2023-03-15T15:11:12;1.20;;;0.70;;
317;SDS011;146;53.448;10.228;2023-03-15T15:13:40;1.33;;;1.00;;
317;SDS011;146;53.448;10.228;2023-03-15T15:16:07;1.13;;;0.60;;
317;SDS011;146;53.448;10.228;2023-03-15T15:18:40;2.00;;;0.97;;
317;SDS011;146;53.448;10.228;2023-03-15T15:21:15;3.57;;;1.00;;
317;SDS011;146;53.448;10.228;2023-03-15T15:23:51;2.70;;;1.20;;
317;SDS011;146;53.448;10.228;2023-03-15T15:26:18;1.27;;;0.80;;
317;SDS011;146;53.448;10.228;2023-03-15T15:28:58;2.20;;;0.80;;
317;SDS011;146;53.448;10.228;2023-03-15T15:31:37;2.40;;;0.97;;
317;SDS011;146;53.448;10.228;2023-03-15T15:34:07;2.40;;;1.00;;
317;SDS011;146;53.448;10.228;2023-03-15T15:36:46;1.23;;;0.87;;
317;SDS011;146;53.448;10.228;2023-03-15T15:39:15;3.43;;;1.00;;
317;SDS011;146;53.448;10.228;2023-03-15T15:41:46;2.50;;;0.80;;
317;SDS011;146;53.448;10.228;2023-03-15T15:44:13;1.60;;;0.80;;
317;SDS011;146;53.448;10.228;2023-03-15T15:46:41;7.50;;;1.30;;
317;SDS011;146;53.448;10.228;2023-03-15T15:49:11;2.00;;;1.00;;
317;SDS011;146;53.448;10.228;2023-03-15T15:51:46;2.73;;;1.03;;
317;SDS011;146;53.448;10.228;2023-03-15T15:54:15;2.90;;;1.20;;
317;SDS011;146;53.448;10.228;2023-03-15T15:56:44;10.33;;;1.33;;
317;SDS011;146;53.448;10.228;2023-03-15T15:59:14;1.67;;;0.90;;
317;SDS011;146;53.448;10.228;2023-03-15T16:01:46;2.80;;;1.70;;
317;SDS011;146;53.448;10.228;2023-03-15T16:04:14;6.03;;;2.87;;
317;SDS011;146;53.448;10.228;2023-03-15T16:06:44;2.30;;;1.80;;
317;SDS011;146;53.448;10.228;2023-03-15T16:09:16;2.40;;;1.10;;
317;SDS011;146;53.448;10.228;2023-03-15T16:11:47;8.33;;;2.27;;
317;SDS011;146;53.448;10.228;2023-03-15T16:14:14;1.63;;;1.40;;
317;SDS011;146;53.448;10.228;2023-03-15T16:16:41;7.50;;;1.90;;
317;SDS011;146;53.448;10.228;2023-03-15T16:19:09;2.60;;;1.53;;
317;SDS011;146;53.448;10.228;2023-03-15T16:21:40;3.57;;;2.30;;
317;SDS011;146;53.448;10.228;2023-03-15T16:24:14;3.70;;;1.40;;
317;SDS011;146;53.448;10.228;2023-03-15T16:26:44;3.47;;;2.00;;
317;SDS011;146;53.448;10.228;2023-03-15T16:29:16;4.17;;;1.40;;
317;SDS011;146;53.448;10.228;2023-03-15T16:31:48;3.03;;;1.30;;
317;SDS011;146;53.448;10.228;2023-03-15T16:34:17;0.93;;;0.83;;
317;SDS011;146;53.448;10.228;2023-03-15T16:37:02;2.03;;;1.10;;
317;SDS011;146;53.448;10.228;2023-03-15T16:39:31;4.00;;;1.57;;
317;SDS011;146;53.448;10.228;2023-03-15T16:42:01;1.20;;;1.10;;
317;SDS011;146;53.448;10.228;2023-03-15T16:44:34;5.57;;;1.40;;
317;SDS011;146;53.448;10.228;2023-03-15T16:47:01;1.47;;;0.83;;
317;SDS011;146;53.448;10.228;2023-03-15T16:49:31;3.13;;;1.20;;
317;SDS011;146;53.448;10.228;2023-03-15T16:52:03;6.47;;;1.40;;
317;SDS011;146;53.448;10.228;2023-03-15T16:54:37;6.33;;;1.20;;